sensor_id;sensor_type;location;lat;lon;timestamp;P1;durP1;ratioP1;P2;durP2;ratioP2
55720;SDS011;41626;53.098;6.168;2023-05-20T00:00:49;14.70;;;7.18;;
55720;SDS011;41626;53.098;6.168;2023-05-20T00:03:15;19.90;;;7.07;;
55720;SDS011;41626;53.098;6.168;2023-05-20T00:05:41;16.25;;;6.95;;
55720;SDS011;41626;53.098;6.168;2023-05-20T00:08:07;14.77;;;7.97;;
55720;SDS011;41626;53.098;6.168;2023-05-20T00:10:34;14.30;;;6.60;;
55720;SDS011;41626;53.098;6.168;2023-05-20T00:13:00;15.85;;;7.03;;
55720;SDS011;41626;53.098;6.168;2023-05-20T00:15:26;16.52;;;6.68;;
55720;SDS011;41626;53.098;6.168;2023-05-20T00:17:52;13.38;;;7.22;;
55720;SDS011;41626;53.098;6.168;2023-05-20T00:20:18;17.57;;;7.20;;
55720;SDS011;41626;53.098;6.168;2023-05-20T00:22:44;21.07;;;7.70;;
55720;SDS011;41626;53.098;6.168;2023-05-20T00:25:09;15.53;;;6.77;;
55720;SDS011;41626;53.098;6.168;2023-05-20T00:27:35;17.70;;;7.75;;
55720;SDS011;41626;53.098;6.168;2023-05-20T00:30:01;16.92;;;7.03;;
55720;SDS011;41626;53.098;6.168;2023-05-20T00:32:27;14.35;;;6.35;;
55720;SDS011;41626;53.098;6.168;2023-05-20T00:34:56;18.65;;;7.32;;
55720;SDS011;41626;53.098;6.168;2023-05-20T00:37:22;12.65;;;5.88;;
55720;SDS011;41626;53.098;6.168;2023-05-20T00:39:48;18.55;;;7.60;;
55720;SDS011;41626;53.098;6.168;2023-05-20T00:44:46;18.50;;;6.88;;
55720;SDS011;41626;53.098;6.168;2023-05-20T00:47:13;11.77;;;5.75;;
55720;SDS011;41626;53.098;6.168;2023-05-20T00:49:40;13.55;;;5.72;;
55720;SDS011;41626;53.098;6.168;2023-05-20T00:52:06;14.52;;;6.75;;
55720;SDS011;41626;53.098;6.168;2023-05-20T00:54:32;12.27;;;6.07;;
55720;SDS011;41626;53.098;6.168;2023-05-20T00:56:58;16.23;;;6.80;;
55720;SDS011;41626;53.098;6.168;2023-05-20T00:59:24;18.58;;;7.10;;
55720;SDS011;41626;53.098;6.168;2023-05-20T01:01:51;19.65;;;7.07;;
55720;SDS011;41626;53.098;6.168;2023-05-20T01:04:17;13.85;;;6.00;;
55720;SDS011;41626;53.098;6.168;2023-05-20T01:06:43;13.93;;;7.10;;
55720;SDS011;41626;53.098;6.168;2023-05-20T01:09:10;13.98;;;7.10;;
55720;SDS011;41626;53.098;6.168;2023-05-20T01:11:37;20.47;;;7.20;;
55720;SDS011;41626;53.098;6.168;2023-05-20T01:14:09;12.15;;;6.32;;
55720;SDS011;41626;53.098;6.168;2023-05-20T01:16:37;11.57;;;6.28;;
55720;SDS011;41626;53.098;6.168;2023-05-20T01:19:03;14.90;;;6.67;;
55720;SDS011;41626;53.098;6.168;2023-05-20T01:21:33;14.10;;;6.13;;
55720;SDS011;41626;53.098;6.168;2023-05-20T01:24:00;13.40;;;6.88;;
55720;SDS011;41626;53.098;6.168;2023-05-20T01:26:28;14.25;;;6.72;;
55720;SDS011;41626;53.098;6.168;2023-05-20T01:28:53;11.87;;;6.73;;
55720;SDS011;41626;53.098;6.168;2023-05-20T01:31:25;15.00;;;6.18;;
55720;SDS011;41626;53.098;6.168;2023-05-20T01:33:55;14.40;;;6.90;;
55720;SDS011;41626;53.098;6.168;2023-05-20T01:36:22;16.95;;;6.68;;
55720;SDS011;41626;53.098;6.168;2023-05-20T01:38:48;17.70;;;6.35;;
55720;SDS011;41626;53.098;6.168;2023-05-20T01:41:17;18.42;;;7.25;;
55720;SDS011;41626;53.098;6.168;2023-05-20T01:43:43;12.95;;;6.15;;
55720;SDS011;41626;53.098;6.168;2023-05-20T01:46:09;14.10;;;6.97;;
55720;SDS011;41626;53.098;6.168;2023-05-20T01:48:34;11.70;;;6.40;;
55720;SDS011;41626;53.098;6.168;2023-05-20T01:51:00;17.67;;;7.87;;
55720;SDS011;41626;53.098;6.168;2023-05-20T01:53:26;14.27;;;6.87;;
55720;SDS011;41626;53.098;6.168;2023-05-20T01:55:51;15.77;;;6.60;;
55720;SDS011;41626;53.098;6.168;2023-05-20T01:58:17;16.00;;;6.30;;
55720;SDS011;41626;53.098;6.168;2023-05-20T02:00:43;12.13;;;7.15;;
55720;SDS011;41626;53.098;6.168;2023-05-20T02:03:08;11.43;;;6.60;;
55720;SDS011;41626;53.098;6.168;2023-05-20T02:05:35;15.00;;;7.27;;
55720;SDS011;41626;53.098;6.168;2023-05-20T02:08:00;16.93;;;7.27;;
55720;SDS011;41626;53.098;6.168;2023-05-20T02:10:26;12.73;;;6.50;;
55720;SDS011;41626;53.098;6.168;2023-05-20T02:12:52;14.43;;;6.63;;
55720;SDS011;41626;53.098;6.168;2023-05-20T02:15:17;15.38;;;7.28;;
55720;SDS011;41626;53.098;6.168;2023-05-20T02:17:43;11.60;;;6.97;;
55720;SDS011;41626;53.098;6.168;2023-05-20T02:20:09;18.20;;;7.65;;
55720;SDS011;41626;53.098;6.168;2023-05-20T02:22:35;12.27;;;6.40;;
55720;SDS011;41626;53.098;6.168;2023-05-20T02:25:01;12.47;;;7.10;;
55720;SDS011;41626;53.098;6.168;2023-05-20T02:27:27;11.68;;;6.50;;
55720;SDS011;41626;53.098;6.168;2023-05-20T02:29:53;16.17;;;7.15;;
55720;SDS011;41626;53.098;6.168;2023-05-20T02:32:18;14.10;;;6.30;;
55720;SDS011;41626;53.098;6.168;2023-05-20T02:34:45;12.57;;;6.50;;
55720;SDS011;41626;53.098;6.168;2023-05-20T02:37:11;14.23;;;6.77;;
55720;SDS011;41626;53.098;6.168;2023-05-20T02:39:36;15.83;;;7.07;;
55720;SDS011;41626;53.098;6.168;2023-05-20T02:42:02;11.67;;;6.97;;
55720;SDS011;41626;53.098;6.168;2023-05-20T02:44:28;13.98;;;6.60;;
55720;SDS011;41626;53.098;6.168;2023-05-20T02:46:54;12.18;;;6.38;;
55720;SDS011;41626;53.098;6.168;2023-05-20T02:49:20;12.10;;;5.95;;
55720;SDS011;41626;53.098;6.168;2023-05-20T02:51:45;13.80;;;7.27;;
55720;SDS011;41626;53.098;6.168;2023-05-20T02:54:11;12.10;;;6.50;;
55720;SDS011;41626;53.098;6.168;2023-05-20T02:56:37;12.50;;;6.50;;
55720;SDS011;41626;53.098;6.168;2023-05-20T02:59:02;12.68;;;6.97;;
55720;SDS011;41626;53.098;6.168;2023-05-20T03:01:29;8.07;;;5.30;;
55720;SDS011;41626;53.098;6.168;2023-05-20T03:03:54;11.55;;;6.35;;
55720;SDS011;41626;53.098;6.168;2023-05-20T03:06:20;12.90;;;6.70;;
55720;SDS011;41626;53.098;6.168;2023-05-20T03:08:46;13.07;;;6.43;;
55720;SDS011;41626;53.098;6.168;2023-05-20T03:11:11;9.70;;;6.27;;
55720;SDS011;41626;53.098;6.168;2023-05-20T03:13:37;11.47;;;6.97;;
55720;SDS011;41626;53.098;6.168;2023-05-20T03:16:03;11.20;;;6.50;;
55720;SDS011;41626;53.098;6.168;2023-05-20T03:18:29;13.77;;;6.95;;
55720;SDS011;41626;53.098;6.168;2023-05-20T03:20:54;13.20;;;5.47;;
55720;SDS011;41626;53.098;6.168;2023-05-20T03:23:20;13.50;;;6.73;;
55720;SDS011;41626;53.098;6.168;2023-05-20T03:25:46;10.95;;;6.25;;
55720;SDS011;41626;53.098;6.168;2023-05-20T03:28:12;10.10;;;6.27;;
55720;SDS011;41626;53.098;6.168;2023-05-20T03:30:38;9.07;;;5.87;;
55720;SDS011;41626;53.098;6.168;2023-05-20T03:33:03;11.57;;;6.07;;
55720;SDS011;41626;53.098;6.168;2023-05-20T03:35:29;10.93;;;6.13;;
55720;SDS011;41626;53.098;6.168;2023-05-20T03:37:55;12.95;;;7.03;;
55720;SDS011;41626;53.098;6.168;2023-05-20T03:40:22;10.00;;;6.07;;
55720;SDS011;41626;53.098;6.168;2023-05-20T03:42:48;12.85;;;5.55;;
55720;SDS011;41626;53.098;6.168;2023-05-20T03:45:15;9.35;;;5.40;;
55720;SDS011;41626;53.098;6.168;2023-05-20T03:47:41;7.53;;;5.47;;
55720;SDS011;41626;53.098;6.168;2023-05-20T03:50:07;9.83;;;5.33;;
55720;SDS011;41626;53.098;6.168;2023-05-20T03:52:33;8.18;;;5.30;;
55720;SDS011;41626;53.098;6.168;2023-05-20T03:54:58;9.53;;;5.47;;
55720;SDS011;41626;53.098;6.168;2023-05-20T03:57:24;10.43;;;5.07;;
55720;SDS011;41626;53.098;6.168;2023-05-20T03:59:50;9.73;;;5.28;;
55720;SDS011;41626;53.098;6.168;2023-05-20T04:02:16;10.30;;;5.75;;
55720;SDS011;41626;53.098;6.168;2023-05-20T04:04:42;9.50;;;5.10;;
55720;SDS011;41626;53.098;6.168;2023-05-20T04:07:10;9.32;;;4.90;;
55720;SDS011;41626;53.098;6.168;2023-05-20T04:09:36;13.23;;;4.85;;
55720;SDS011;41626;53.098;6.168;2023-05-20T04:12:03;9.73;;;4.40;;
55720;SDS011;41626;53.098;6.168;2023-05-20T04:14:31;8.13;;;4.80;;
55720;SDS011;41626;53.098;6.168;2023-05-20T04:17:03;12.40;;;5.80;;
55720;SDS011;41626;53.098;6.168;2023-05-20T04:19:29;9.13;;;4.80;;
55720;SDS011;41626;53.098;6.168;2023-05-20T04:21:55;9.02;;;4.40;;
55720;SDS011;41626;53.098;6.168;2023-05-20T04:24:21;7.15;;;4.28;;
55720;SDS011;41626;53.098;6.168;2023-05-20T04:26:49;7.75;;;4.25;;
55720;SDS011;41626;53.098;6.168;2023-05-20T04:29:16;8.30;;;4.17;;
55720;SDS011;41626;53.098;6.168;2023-05-20T04:31:44;7.68;;;4.57;;
55720;SDS011;41626;53.098;6.168;2023-05-20T04:34:10;7.68;;;4.13;;
55720;SDS011;41626;53.098;6.168;2023-05-20T04:36:36;10.85;;;4.72;;
55720;SDS011;41626;53.098;6.168;2023-05-20T04:39:02;6.25;;;4.00;;
55720;SDS011;41626;53.098;6.168;2023-05-20T04:41:29;6.33;;;3.60;;
55720;SDS011;41626;53.098;6.168;2023-05-20T04:43:55;8.95;;;4.20;;
55720;SDS011;41626;53.098;6.168;2023-05-20T04:46:25;9.02;;;4.07;;
55720;SDS011;41626;53.098;6.168;2023-05-20T04:48:51;6.17;;;4.10;;
55720;SDS011;41626;53.098;6.168;2023-05-20T04:51:17;8.32;;;3.90;;
55720;SDS011;41626;53.098;6.168;2023-05-20T04:53:43;5.82;;;4.05;;
55720;SDS011;41626;53.098;6.168;2023-05-20T04:56:09;9.67;;;3.50;;
55720;SDS011;41626;53.098;6.168;2023-05-20T04:58:35;6.73;;;4.13;;
55720;SDS011;41626;53.098;6.168;2023-05-20T05:01:02;10.45;;;3.55;;
55720;SDS011;41626;53.098;6.168;2023-05-20T05:03:28;6.72;;;3.42;;
55720;SDS011;41626;53.098;6.168;2023-05-20T05:05:57;7.27;;;3.13;;
55720;SDS011;41626;53.098;6.168;2023-05-20T05:08:23;6.85;;;3.47;;
55720;SDS011;41626;53.098;6.168;2023-05-20T05:10:49;5.82;;;3.47;;
55720;SDS011;41626;53.098;6.168;2023-05-20T05:13:15;6.47;;;3.65;;
55720;SDS011;41626;53.098;6.168;2023-05-20T05:15:41;6.22;;;3.35;;
55720;SDS011;41626;53.098;6.168;2023-05-20T05:18:06;6.33;;;2.73;;
55720;SDS011;41626;53.098;6.168;2023-05-20T05:20:32;7.10;;;3.10;;
55720;SDS011;41626;53.098;6.168;2023-05-20T05:22:57;7.83;;;3.53;;
55720;SDS011;41626;53.098;6.168;2023-05-20T05:25:23;8.05;;;3.63;;
55720;SDS011;41626;53.098;6.168;2023-05-20T05:27:49;7.25;;;3.80;;
55720;SDS011;41626;53.098;6.168;2023-05-20T05:30:15;3.75;;;2.55;;
55720;SDS011;41626;53.098;6.168;2023-05-20T05:32:41;8.35;;;2.97;;
55720;SDS011;41626;53.098;6.168;2023-05-20T05:35:07;6.38;;;3.25;;
55720;SDS011;41626;53.098;6.168;2023-05-20T05:37:33;4.43;;;2.80;;
55720;SDS011;41626;53.098;6.168;2023-05-20T05:39:58;8.30;;;3.50;;
55720;SDS011;41626;53.098;6.168;2023-05-20T05:42:24;6.13;;;2.90;;
55720;SDS011;41626;53.098;6.168;2023-05-20T05:44:50;8.07;;;2.47;;
55720;SDS011;41626;53.098;6.168;2023-05-20T05:47:16;5.78;;;2.50;;
55720;SDS011;41626;53.098;6.168;2023-05-20T05:49:41;5.60;;;2.70;;
55720;SDS011;41626;53.098;6.168;2023-05-20T05:52:07;7.43;;;2.45;;
55720;SDS011;41626;53.098;6.168;2023-05-20T05:54:33;7.13;;;3.72;;
55720;SDS011;41626;53.098;6.168;2023-05-20T05:56:58;5.15;;;2.22;;
55720;SDS011;41626;53.098;6.168;2023-05-20T05:59:24;4.13;;;2.10;;
55720;SDS011;41626;53.098;6.168;2023-05-20T06:01:50;5.45;;;2.00;;
55720;SDS011;41626;53.098;6.168;2023-05-20T06:04:15;6.13;;;2.60;;
55720;SDS011;41626;53.098;6.168;2023-05-20T06:06:41;5.80;;;3.23;;
55720;SDS011;41626;53.098;6.168;2023-05-20T06:09:07;5.37;;;2.13;;
55720;SDS011;41626;53.098;6.168;2023-05-20T06:11:32;5.80;;;2.13;;
55720;SDS011;41626;53.098;6.168;2023-05-20T06:13:58;3.28;;;2.15;;
55720;SDS011;41626;53.098;6.168;2023-05-20T06:16:25;5.32;;;2.00;;
55720;SDS011;41626;53.098;6.168;2023-05-20T06:18:50;7.07;;;2.50;;
55720;SDS011;41626;53.098;6.168;2023-05-20T06:21:19;4.25;;;2.10;;
55720;SDS011;41626;53.098;6.168;2023-05-20T06:23:45;3.13;;;1.97;;
55720;SDS011;41626;53.098;6.168;2023-05-20T06:26:11;4.07;;;2.40;;
55720;SDS011;41626;53.098;6.168;2023-05-20T06:28:37;5.53;;;2.33;;
55720;SDS011;41626;53.098;6.168;2023-05-20T06:31:03;4.45;;;2.00;;
55720;SDS011;41626;53.098;6.168;2023-05-20T06:33:30;3.03;;;1.77;;
55720;SDS011;41626;53.098;6.168;2023-05-20T06:35:56;3.03;;;2.08;;
55720;SDS011;41626;53.098;6.168;2023-05-20T06:38:23;4.72;;;1.65;;
55720;SDS011;41626;53.098;6.168;2023-05-20T06:40:49;3.25;;;1.30;;
55720;SDS011;41626;53.098;6.168;2023-05-20T06:43:15;3.60;;;1.50;;
55720;SDS011;41626;53.098;6.168;2023-05-20T06:45:41;2.30;;;1.48;;
55720;SDS011;41626;53.098;6.168;2023-05-20T06:48:08;2.83;;;1.45;;
55720;SDS011;41626;53.098;6.168;2023-05-20T06:50:33;5.65;;;2.22;;
55720;SDS011;41626;53.098;6.168;2023-05-20T06:52:59;3.85;;;1.50;;
55720;SDS011;41626;53.098;6.168;2023-05-20T06:55:25;3.00;;;1.58;;
55720;SDS011;41626;53.098;6.168;2023-05-20T06:57:51;5.32;;;1.40;;
55720;SDS011;41626;53.098;6.168;2023-05-20T07:00:17;3.53;;;1.98;;
55720;SDS011;41626;53.098;6.168;2023-05-20T07:02:43;3.33;;;1.52;;
55720;SDS011;41626;53.098;6.168;2023-05-20T07:05:08;3.20;;;1.50;;
55720;SDS011;41626;53.098;6.168;2023-05-20T07:07:34;3.47;;;1.65;;
55720;SDS011;41626;53.098;6.168;2023-05-20T07:10:00;3.33;;;1.20;;
55720;SDS011;41626;53.098;6.168;2023-05-20T07:12:29;4.63;;;1.67;;
55720;SDS011;41626;53.098;6.168;2023-05-20T07:14:56;3.72;;;1.52;;
55720;SDS011;41626;53.098;6.168;2023-05-20T07:17:21;2.75;;;1.38;;
55720;SDS011;41626;53.098;6.168;2023-05-20T07:19:48;3.30;;;1.38;;
55720;SDS011;41626;53.098;6.168;2023-05-20T07:22:14;3.58;;;1.20;;
55720;SDS011;41626;53.098;6.168;2023-05-20T07:24:40;3.83;;;1.73;;
55720;SDS011;41626;53.098;6.168;2023-05-20T07:27:05;4.05;;;1.45;;
55720;SDS011;41626;53.098;6.168;2023-05-20T07:29:31;4.27;;;1.20;;
55720;SDS011;41626;53.098;6.168;2023-05-20T07:31:57;4.00;;;1.10;;
55720;SDS011;41626;53.098;6.168;2023-05-20T07:34:23;4.80;;;1.43;;
55720;SDS011;41626;53.098;6.168;2023-05-20T07:36:49;4.10;;;1.00;;
55720;SDS011;41626;53.098;6.168;2023-05-20T07:39:15;3.00;;;1.80;;
55720;SDS011;41626;53.098;6.168;2023-05-20T07:41:41;6.90;;;1.23;;
55720;SDS011;41626;53.098;6.168;2023-05-20T07:44:06;16.17;;;1.43;;
55720;SDS011;41626;53.098;6.168;2023-05-20T07:46:33;3.20;;;1.23;;
55720;SDS011;41626;53.098;6.168;2023-05-20T07:48:59;1.60;;;1.00;;
55720;SDS011;41626;53.098;6.168;2023-05-20T07:51:25;4.68;;;1.05;;
55720;SDS011;41626;53.098;6.168;2023-05-20T07:53:51;4.05;;;1.02;;
55720;SDS011;41626;53.098;6.168;2023-05-20T07:56:16;3.80;;;1.65;;
55720;SDS011;41626;53.098;6.168;2023-05-20T07:58:42;3.47;;;1.10;;
55720;SDS011;41626;53.098;6.168;2023-05-20T08:01:15;6.60;;;2.10;;
55720;SDS011;41626;53.098;6.168;2023-05-20T08:03:41;1.80;;;1.25;;
55720;SDS011;41626;53.098;6.168;2023-05-20T08:06:07;2.87;;;1.47;;
55720;SDS011;41626;53.098;6.168;2023-05-20T08:08:32;3.10;;;1.20;;
55720;SDS011;41626;53.098;6.168;2023-05-20T08:10:58;1.77;;;1.08;;
55720;SDS011;41626;53.098;6.168;2023-05-20T08:13:25;5.80;;;2.10;;
55720;SDS011;41626;53.098;6.168;2023-05-20T08:15:52;3.85;;;1.10;;
55720;SDS011;41626;53.098;6.168;2023-05-20T08:18:18;4.93;;;1.33;;
55720;SDS011;41626;53.098;6.168;2023-05-20T08:20:44;1.70;;;1.10;;
55720;SDS011;41626;53.098;6.168;2023-05-20T08:23:10;3.65;;;1.40;;
55720;SDS011;41626;53.098;6.168;2023-05-20T08:25:35;5.15;;;1.40;;
55720;SDS011;41626;53.098;6.168;2023-05-20T08:28:02;2.90;;;1.17;;
55720;SDS011;41626;53.098;6.168;2023-05-20T08:30:29;2.45;;;1.20;;
55720;SDS011;41626;53.098;6.168;2023-05-20T08:32:55;2.60;;;1.15;;
55720;SDS011;41626;53.098;6.168;2023-05-20T08:35:22;4.30;;;1.35;;
55720;SDS011;41626;53.098;6.168;2023-05-20T08:37:48;3.13;;;1.33;;
55720;SDS011;41626;53.098;6.168;2023-05-20T08:40:14;3.77;;;1.60;;
55720;SDS011;41626;53.098;6.168;2023-05-20T08:42:41;4.20;;;1.35;;
55720;SDS011;41626;53.098;6.168;2023-05-20T08:45:09;6.97;;;1.50;;
55720;SDS011;41626;53.098;6.168;2023-05-20T08:47:37;6.85;;;2.13;;
55720;SDS011;41626;53.098;6.168;2023-05-20T08:50:05;3.25;;;1.15;;
55720;SDS011;41626;53.098;6.168;2023-05-20T08:52:33;4.88;;;1.40;;
55720;SDS011;41626;53.098;6.168;2023-05-20T08:54:59;3.20;;;1.70;;
55720;SDS011;41626;53.098;6.168;2023-05-20T08:57:26;5.40;;;1.90;;
55720;SDS011;41626;53.098;6.168;2023-05-20T08:59:54;2.72;;;1.30;;
55720;SDS011;41626;53.098;6.168;2023-05-20T09:02:21;6.10;;;1.50;;
55720;SDS011;41626;53.098;6.168;2023-05-20T09:04:47;3.17;;;1.30;;
55720;SDS011;41626;53.098;6.168;2023-05-20T09:07:12;2.50;;;1.23;;
55720;SDS011;41626;53.098;6.168;2023-05-20T09:09:38;5.50;;;1.87;;
55720;SDS011;41626;53.098;6.168;2023-05-20T09:12:05;5.78;;;1.17;;
55720;SDS011;41626;53.098;6.168;2023-05-20T09:14:31;2.30;;;1.30;;
55720;SDS011;41626;53.098;6.168;2023-05-20T09:16:56;2.75;;;1.30;;
55720;SDS011;41626;53.098;6.168;2023-05-20T09:19:22;3.63;;;1.92;;
55720;SDS011;41626;53.098;6.168;2023-05-20T09:21:50;4.13;;;1.20;;
55720;SDS011;41626;53.098;6.168;2023-05-20T09:24:22;4.40;;;1.90;;
55720;SDS011;41626;53.098;6.168;2023-05-20T09:26:49;3.93;;;1.63;;
55720;SDS011;41626;53.098;6.168;2023-05-20T09:29:15;3.58;;;1.48;;
55720;SDS011;41626;53.098;6.168;2023-05-20T09:31:41;3.55;;;1.58;;
55720;SDS011;41626;53.098;6.168;2023-05-20T09:34:07;2.80;;;1.58;;
55720;SDS011;41626;53.098;6.168;2023-05-20T09:36:33;3.25;;;1.63;;
55720;SDS011;41626;53.098;6.168;2023-05-20T09:39:00;3.00;;;1.45;;
55720;SDS011;41626;53.098;6.168;2023-05-20T09:41:32;3.17;;;1.45;;
55720;SDS011;41626;53.098;6.168;2023-05-20T09:44:02;2.33;;;1.40;;
55720;SDS011;41626;53.098;6.168;2023-05-20T09:46:32;5.87;;;1.57;;
55720;SDS011;41626;53.098;6.168;2023-05-20T09:48:58;6.65;;;1.70;;
55720;SDS011;41626;53.098;6.168;2023-05-20T09:51:25;4.03;;;1.65;;
55720;SDS011;41626;53.098;6.168;2023-05-20T09:53:53;7.15;;;1.73;;
55720;SDS011;41626;53.098;6.168;2023-05-20T09:56:19;5.17;;;1.87;;
55720;SDS011;41626;53.098;6.168;2023-05-20T09:58:46;3.30;;;1.40;;
55720;SDS011;41626;53.098;6.168;2023-05-20T10:01:14;5.45;;;1.65;;
55720;SDS011;41626;53.098;6.168;2023-05-20T10:03:41;3.67;;;1.38;;
55720;SDS011;41626;53.098;6.168;2023-05-20T10:06:20;4.55;;;1.77;;
55720;SDS011;41626;53.098;6.168;2023-05-20T10:09:13;2.30;;;1.57;;
55720;SDS011;41626;53.098;6.168;2023-05-20T10:14:54;3.97;;;1.38;;
55720;SDS011;41626;53.098;6.168;2023-05-20T10:17:34;5.25;;;1.33;;
55720;SDS011;41626;53.098;6.168;2023-05-20T10:20:23;4.10;;;1.85;;
55720;SDS011;41626;53.098;6.168;2023-05-20T10:22:57;5.87;;;1.83;;
55720;SDS011;41626;53.098;6.168;2023-05-20T10:25:24;4.75;;;1.20;;
55720;SDS011;41626;53.098;6.168;2023-05-20T10:27:51;3.50;;;1.20;;
55720;SDS011;41626;53.098;6.168;2023-05-20T10:30:27;3.05;;;1.42;;
55720;SDS011;41626;53.098;6.168;2023-05-20T10:32:55;4.72;;;1.90;;
55720;SDS011;41626;53.098;6.168;2023-05-20T10:35:22;3.97;;;1.70;;
55720;SDS011;41626;53.098;6.168;2023-05-20T10:37:50;3.85;;;1.90;;
55720;SDS011;41626;53.098;6.168;2023-05-20T10:40:18;3.87;;;1.90;;
55720;SDS011;41626;53.098;6.168;2023-05-20T10:42:44;4.82;;;1.70;;
55720;SDS011;41626;53.098;6.168;2023-05-20T10:45:12;4.32;;;2.00;;
55720;SDS011;41626;53.098;6.168;2023-05-20T10:47:53;7.93;;;2.13;;
55720;SDS011;41626;53.098;6.168;2023-05-20T10:50:26;4.15;;;1.50;;
55720;SDS011;41626;53.098;6.168;2023-05-20T10:53:03;4.03;;;1.50;;
55720;SDS011;41626;53.098;6.168;2023-05-20T10:55:35;5.65;;;3.20;;
55720;SDS011;41626;53.098;6.168;2023-05-20T10:58:02;4.57;;;1.48;;
55720;SDS011;41626;53.098;6.168;2023-05-20T11:00:30;4.72;;;1.83;;
55720;SDS011;41626;53.098;6.168;2023-05-20T11:02:58;6.47;;;1.88;;
55720;SDS011;41626;53.098;6.168;2023-05-20T11:05:25;4.38;;;1.60;;
55720;SDS011;41626;53.098;6.168;2023-05-20T11:07:59;2.95;;;1.88;;
55720;SDS011;41626;53.098;6.168;2023-05-20T11:10:26;5.43;;;1.90;;
55720;SDS011;41626;53.098;6.168;2023-05-20T11:12:52;10.10;;;2.35;;
55720;SDS011;41626;53.098;6.168;2023-05-20T11:15:18;4.32;;;1.63;;
55720;SDS011;41626;53.098;6.168;2023-05-20T11:17:51;2.95;;;1.70;;
55720;SDS011;41626;53.098;6.168;2023-05-20T11:20:20;3.90;;;1.70;;
55720;SDS011;41626;53.098;6.168;2023-05-20T11:22:50;6.55;;;2.33;;
55720;SDS011;41626;53.098;6.168;2023-05-20T11:25:17;4.20;;;1.90;;
55720;SDS011;41626;53.098;6.168;2023-05-20T11:27:44;3.78;;;1.80;;
55720;SDS011;41626;53.098;6.168;2023-05-20T11:30:10;5.28;;;2.60;;
55720;SDS011;41626;53.098;6.168;2023-05-20T11:32:41;7.75;;;3.28;;
55720;SDS011;41626;53.098;6.168;2023-05-20T11:35:18;4.10;;;1.90;;
55720;SDS011;41626;53.098;6.168;2023-05-20T11:38:21;5.27;;;2.40;;
55720;SDS011;41626;53.098;6.168;2023-05-20T11:40:43;7.15;;;2.60;;
55720;SDS011;41626;53.098;6.168;2023-05-20T11:43:11;6.70;;;2.55;;
55720;SDS011;41626;53.098;6.168;2023-05-20T11:45:38;15.82;;;3.17;;
55720;SDS011;41626;53.098;6.168;2023-05-20T11:48:06;5.35;;;2.17;;
55720;SDS011;41626;53.098;6.168;2023-05-20T11:50:33;6.72;;;2.30;;
55720;SDS011;41626;53.098;6.168;2023-05-20T11:53:05;5.20;;;2.40;;
55720;SDS011;41626;53.098;6.168;2023-05-20T11:55:32;6.53;;;2.40;;
55720;SDS011;41626;53.098;6.168;2023-05-20T11:57:59;5.10;;;2.20;;
55720;SDS011;41626;53.098;6.168;2023-05-20T12:00:25;6.63;;;2.58;;
55720;SDS011;41626;53.098;6.168;2023-05-20T12:02:51;7.33;;;2.40;;
55720;SDS011;41626;53.098;6.168;2023-05-20T12:05:17;7.00;;;2.87;;
55720;SDS011;41626;53.098;6.168;2023-05-20T12:07:43;8.23;;;3.10;;
55720;SDS011;41626;53.098;6.168;2023-05-20T12:10:09;6.63;;;2.92;;
55720;SDS011;41626;53.098;6.168;2023-05-20T12:12:35;4.93;;;2.70;;
55720;SDS011;41626;53.098;6.168;2023-05-20T12:15:02;7.20;;;3.23;;
55720;SDS011;41626;53.098;6.168;2023-05-20T12:17:30;7.95;;;2.83;;
55720;SDS011;41626;53.098;6.168;2023-05-20T12:19:56;7.75;;;2.75;;
55720;SDS011;41626;53.098;6.168;2023-05-20T12:22:22;8.93;;;3.53;;
55720;SDS011;41626;53.098;6.168;2023-05-20T12:24:48;5.63;;;2.30;;
55720;SDS011;41626;53.098;6.168;2023-05-20T12:27:14;5.15;;;2.50;;
55720;SDS011;41626;53.098;6.168;2023-05-20T12:29:40;6.87;;;2.90;;
55720;SDS011;41626;53.098;6.168;2023-05-20T12:32:05;3.72;;;1.98;;
55720;SDS011;41626;53.098;6.168;2023-05-20T12:34:31;5.55;;;3.10;;
55720;SDS011;41626;53.098;6.168;2023-05-20T12:36:57;6.90;;;2.92;;
55720;SDS011;41626;53.098;6.168;2023-05-20T12:39:23;6.53;;;3.00;;
55720;SDS011;41626;53.098;6.168;2023-05-20T12:41:48;5.43;;;2.93;;
55720;SDS011;41626;53.098;6.168;2023-05-20T12:44:17;5.43;;;2.65;;
55720;SDS011;41626;53.098;6.168;2023-05-20T12:46:42;6.97;;;2.83;;
55720;SDS011;41626;53.098;6.168;2023-05-20T12:49:08;6.93;;;2.50;;
55720;SDS011;41626;53.098;6.168;2023-05-20T12:51:34;5.75;;;3.08;;
55720;SDS011;41626;53.098;6.168;2023-05-20T12:53:59;7.72;;;3.30;;
55720;SDS011;41626;53.098;6.168;2023-05-20T12:56:25;5.37;;;2.70;;
55720;SDS011;41626;53.098;6.168;2023-05-20T12:58:51;6.15;;;2.75;;
55720;SDS011;41626;53.098;6.168;2023-05-20T13:01:17;7.82;;;2.95;;
55720;SDS011;41626;53.098;6.168;2023-05-20T13:03:42;6.85;;;2.80;;
55720;SDS011;41626;53.098;6.168;2023-05-20T13:06:08;5.90;;;2.87;;
55720;SDS011;41626;53.098;6.168;2023-05-20T13:08:34;5.13;;;3.33;;
55720;SDS011;41626;53.098;6.168;2023-05-20T13:10:59;5.07;;;2.97;;
55720;SDS011;41626;53.098;6.168;2023-05-20T13:13:25;7.20;;;3.93;;
55720;SDS011;41626;53.098;6.168;2023-05-20T13:15:51;6.45;;;3.63;;
55720;SDS011;41626;53.098;6.168;2023-05-20T13:18:17;6.88;;;2.97;;
55720;SDS011;41626;53.098;6.168;2023-05-20T13:20:43;5.18;;;2.80;;
55720;SDS011;41626;53.098;6.168;2023-05-20T13:23:09;4.77;;;2.90;;
55720;SDS011;41626;53.098;6.168;2023-05-20T13:25:34;5.00;;;3.10;;
55720;SDS011;41626;53.098;6.168;2023-05-20T13:28:01;6.85;;;2.92;;
55720;SDS011;41626;53.098;6.168;2023-05-20T13:30:27;4.47;;;2.72;;
55720;SDS011;41626;53.098;6.168;2023-05-20T13:32:53;6.82;;;3.45;;
55720;SDS011;41626;53.098;6.168;2023-05-20T13:35:19;6.87;;;3.50;;
55720;SDS011;41626;53.098;6.168;2023-05-20T13:37:45;5.00;;;3.30;;
55720;SDS011;41626;53.098;6.168;2023-05-20T13:40:10;7.67;;;3.37;;
55720;SDS011;41626;53.098;6.168;2023-05-20T13:42:37;9.73;;;3.85;;
55720;SDS011;41626;53.098;6.168;2023-05-20T13:45:03;7.73;;;3.67;;
55720;SDS011;41626;53.098;6.168;2023-05-20T13:47:29;6.25;;;3.40;;
55720;SDS011;41626;53.098;6.168;2023-05-20T13:49:54;5.40;;;3.30;;
55720;SDS011;41626;53.098;6.168;2023-05-20T13:52:20;8.10;;;3.90;;
55720;SDS011;41626;53.098;6.168;2023-05-20T13:54:46;5.57;;;3.00;;
55720;SDS011;41626;53.098;6.168;2023-05-20T13:57:12;8.00;;;3.57;;
55720;SDS011;41626;53.098;6.168;2023-05-20T13:59:39;8.35;;;3.28;;
55720;SDS011;41626;53.098;6.168;2023-05-20T14:02:05;8.73;;;3.53;;
55720;SDS011;41626;53.098;6.168;2023-05-20T14:04:31;6.60;;;3.53;;
55720;SDS011;41626;53.098;6.168;2023-05-20T14:07:06;7.82;;;3.22;;
55720;SDS011;41626;53.098;6.168;2023-05-20T14:09:31;7.78;;;3.38;;
55720;SDS011;41626;53.098;6.168;2023-05-20T14:11:57;6.30;;;3.20;;
55720;SDS011;41626;53.098;6.168;2023-05-20T14:14:23;10.60;;;3.40;;
55720;SDS011;41626;53.098;6.168;2023-05-20T14:16:49;5.87;;;3.30;;
55720;SDS011;41626;53.098;6.168;2023-05-20T14:19:14;7.47;;;4.32;;
55720;SDS011;41626;53.098;6.168;2023-05-20T14:21:40;10.00;;;4.00;;
55720;SDS011;41626;53.098;6.168;2023-05-20T14:24:06;6.17;;;3.07;;
55720;SDS011;41626;53.098;6.168;2023-05-20T14:26:31;8.63;;;3.55;;
55720;SDS011;41626;53.098;6.168;2023-05-20T14:28:58;7.07;;;3.47;;
55720;SDS011;41626;53.098;6.168;2023-05-20T14:31:25;7.43;;;3.20;;
55720;SDS011;41626;53.098;6.168;2023-05-20T14:33:51;8.63;;;3.40;;
55720;SDS011;41626;53.098;6.168;2023-05-20T14:36:16;6.33;;;3.03;;
55720;SDS011;41626;53.098;6.168;2023-05-20T14:38:42;6.87;;;3.60;;
55720;SDS011;41626;53.098;6.168;2023-05-20T14:41:08;6.70;;;3.83;;
55720;SDS011;41626;53.098;6.168;2023-05-20T14:43:33;7.13;;;3.53;;
55720;SDS011;41626;53.098;6.168;2023-05-20T14:46:01;8.73;;;3.60;;